createdAt,value
2022-11-05T00:02:25.273Z,57.03
2022-11-05T00:05:16.122Z,59.42
2022-11-05T00:08:10.255Z,61.72
2022-11-05T00:10:42.680Z,61.47
2022-11-05T00:13:34.980Z,62.70
2022-11-05T00:16:42.360Z,62.13
2022-11-05T00:19:15.043Z,62.70
2022-11-05T00:22:05.880Z,69.25
2022-11-05T00:24:56.710Z,67.50
2022-11-05T00:27:28.980Z,62.70
2022-11-05T00:30:01.299Z,64.30
2022-11-05T00:32:34.154Z,64.03
2022-11-05T00:35:08.411Z,60.15
2022-11-05T00:37:44.341Z,65.93
2022-11-05T00:40:19.751Z,71.43
2022-11-05T00:43:10.922Z,68.47
2022-11-05T00:45:43.955Z,67.80
2022-11-05T00:48:35.288Z,62.13
2022-11-05T00:51:08.334Z,62.22
2022-11-05T00:53:40.586Z,63.85
2022-11-05T00:56:13.044Z,67.47
2022-11-05T00:58:45.568Z,62.47
2022-11-05T01:01:18.037Z,58.85
2022-11-05T01:03:51.872Z,63.58
2022-11-05T01:06:24.818Z,65.35
2022-11-05T01:08:57.234Z,64.53
2022-11-05T01:11:37.115Z,68.57
2022-11-05T01:14:12.973Z,70.25
2022-11-05T01:16:45.581Z,62.53
2022-11-05T01:19:18.020Z,57.38
2022-11-05T01:21:50.310Z,61.78
2022-11-05T01:24:22.599Z,64.78
2022-11-05T01:26:54.817Z,59.58
2022-11-05T01:29:27.062Z,53.08
2022-11-05T01:31:59.322Z,60.08
2022-11-05T01:34:31.657Z,58.63
2022-11-05T01:37:04.394Z,70.15
2022-11-05T01:39:36.711Z,62.28
2022-11-05T01:42:32.776Z,59.13
2022-11-05T01:45:12.513Z,64.35
2022-11-05T01:47:59.978Z,51.95
2022-11-05T01:50:47.515Z,57.60
2022-11-05T01:53:27.796Z,62.38
2022-11-05T01:56:08.846Z,66.22
2022-11-05T01:59:00.178Z,71.70
2022-11-05T02:01:33.058Z,68.20
2022-11-05T02:04:17.183Z,75.32
2022-11-05T02:06:49.458Z,73.43
2022-11-05T02:09:27.411Z,73.10
2022-11-05T02:11:59.648Z,78.80
2022-11-05T02:14:31.906Z,72.05
2022-11-05T02:17:26.921Z,63.65
2022-11-05T02:20:15.170Z,74.30
2022-11-05T02:23:46.138Z,66.03
2022-11-05T02:27:13.512Z,74.18
2022-11-05T02:30:03.227Z,83.15
2022-11-05T02:32:55.699Z,81.95
2022-11-05T02:35:49.880Z,87.85
2022-11-05T02:38:43.344Z,74.97
2022-11-05T02:41:48.079Z,71.85
2022-11-05T02:44:41.844Z,67.97
2022-11-05T02:47:47.814Z,71.13
2022-11-05T02:50:44.432Z,80.15
2022-11-05T02:53:34.305Z,74.55
2022-11-05T02:56:18.684Z,80.63
2022-11-05T02:58:51.139Z,71.47
2022-11-05T03:01:23.573Z,60.35
2022-11-05T03:04:02.216Z,60.67
2022-11-05T03:07:24.560Z,64.05
2022-11-05T03:10:38.220Z,64.28
2022-11-05T03:13:28.003Z,64.50
2022-11-05T03:16:15.953Z,56.60
2022-11-05T03:19:17.859Z,62.25
2022-11-05T03:22:14.693Z,70.28
2022-11-05T03:24:52.903Z,59.50
2022-11-05T03:27:31.854Z,57.83
2022-11-05T03:30:09.753Z,60.92
2022-11-05T03:32:53.925Z,61.47
2022-11-05T03:35:36.519Z,59.60
2022-11-05T03:38:28.277Z,54.85
2022-11-05T03:41:05.603Z,56.78
2022-11-05T03:43:43.146Z,51.30
2022-11-05T03:46:45.572Z,58.63
2022-11-05T03:49:27.892Z,55.97
2022-11-05T03:52:16.127Z,60.03
2022-11-05T03:54:48.583Z,60.33
2022-11-05T03:57:32.956Z,58.45
2022-11-05T04:00:09.560Z,59.33
2022-11-05T04:02:42.753Z,55.90
2022-11-05T04:05:15.213Z,62.63
2022-11-05T04:08:09.972Z,62.50
2022-11-05T04:11:05.593Z,58.85
2022-11-05T04:13:37.928Z,54.00
2022-11-05T04:16:28.773Z,60.05
2022-11-05T04:19:01.030Z,58.63
2022-11-05T04:21:53.236Z,69.68
2022-11-05T04:24:25.545Z,72.93
2022-11-05T04:26:57.818Z,67.75
2022-11-05T04:29:48.923Z,73.32
2022-11-05T04:32:21.214Z,79.68
2022-11-05T04:34:53.490Z,84.85
2022-11-05T04:37:25.967Z,116.63
2022-11-05T04:39:58.346Z,77.82
2022-11-05T04:42:30.669Z,122.55
2022-11-05T04:45:03.089Z,113.47
2022-11-05T04:47:35.418Z,134.52
2022-11-05T04:50:10.548Z,130.05
2022-11-05T04:52:43.332Z,97.85
2022-11-05T04:55:16.169Z,105.22
2022-11-05T04:57:50.780Z,81.63
2022-11-05T05:00:24.733Z,92.35
2022-11-05T05:02:57.118Z,75.60
2022-11-05T05:05:30.702Z,71.90
2022-11-05T05:08:05.073Z,80.60
2022-11-05T05:10:37.342Z,79.68
2022-11-05T05:13:12.550Z,80.35
2022-11-05T05:15:44.996Z,81.82
2022-11-05T05:18:17.342Z,84.93
2022-11-05T05:21:08.025Z,76.28
2022-11-05T05:23:40.342Z,81.18
2022-11-05T05:26:12.644Z,76.03
2022-11-05T05:28:44.944Z,71.03
2022-11-05T05:31:17.259Z,73.40
2022-11-05T05:33:49.806Z,83.18
2022-11-05T05:36:23.820Z,71.07
2022-11-05T05:38:56.173Z,86.28
2022-11-05T05:41:29.338Z,90.80
2022-11-05T05:44:01.688Z,84.82
2022-11-05T05:46:34.199Z,87.40
2022-11-05T05:49:12.048Z,89.15
2022-11-05T05:51:44.732Z,83.15
2022-11-05T05:54:17.365Z,77.35
2022-11-05T05:56:50.092Z,83.63
2022-11-05T05:59:22.491Z,96.07
2022-11-05T06:01:54.978Z,84.18
2022-11-05T06:04:27.774Z,86.90
2022-11-05T06:07:00.075Z,88.05
2022-11-05T06:09:32.404Z,90.43
2022-11-05T06:12:05.096Z,86.25
2022-11-05T06:14:37.436Z,87.45
2022-11-05T06:17:09.865Z,87.93
2022-11-05T06:19:42.313Z,100.72
2022-11-05T06:22:14.775Z,105.03
2022-11-05T06:24:47.210Z,101.55
2022-11-05T06:27:19.598Z,84.75
2022-11-05T06:29:52.038Z,93.22
2022-11-05T06:32:24.883Z,89.63
2022-11-05T06:34:57.624Z,87.15
2022-11-05T06:37:33.913Z,98.43
2022-11-05T06:40:07.621Z,114.38
2022-11-05T06:42:42.314Z,87.32
2022-11-05T06:45:14.769Z,82.40
2022-11-05T06:47:47.171Z,78.43
2022-11-05T06:50:19.588Z,85.65
2022-11-05T06:53:10.504Z,90.00
2022-11-05T06:55:45.065Z,86.60
2022-11-05T06:58:17.650Z,80.18
2022-11-05T07:00:50.124Z,78.65
2022-11-05T07:03:22.657Z,81.47
2022-11-05T07:06:00.145Z,81.50
2022-11-05T07:08:37.728Z,78.55
2022-11-05T07:11:10.184Z,78.18
2022-11-05T07:13:42.605Z,81.43
2022-11-05T07:16:15.144Z,89.78
2022-11-05T07:18:47.610Z,96.68
2022-11-05T07:21:20.058Z,99.22
2022-11-05T07:23:52.623Z,82.72
2022-11-05T07:26:26.076Z,76.82
2022-11-05T07:29:00.735Z,81.65
2022-11-05T07:31:33.335Z,68.20
2022-11-05T07:34:05.734Z,65.53
2022-11-05T07:36:39.591Z,72.63
2022-11-05T07:39:11.988Z,79.18
2022-11-05T07:41:44.532Z,74.68
2022-11-05T07:44:17.749Z,84.13
2022-11-05T07:46:53.292Z,73.97
2022-11-05T07:49:26.246Z,71.32
2022-11-05T07:51:58.769Z,66.85
2022-11-05T07:54:31.249Z,77.55
2022-11-05T07:57:03.598Z,74.80
2022-11-05T07:59:36.070Z,72.22
2022-11-05T08:02:11.687Z,75.60
2022-11-05T08:04:44.350Z,83.95
2022-11-05T08:07:16.809Z,74.07
2022-11-05T08:09:49.490Z,65.88
2022-11-05T08:12:21.870Z,62.55
2022-11-05T08:14:54.364Z,65.93
2022-11-05T08:17:26.993Z,63.35
2022-11-05T08:19:59.615Z,62.65
2022-11-05T08:22:32.080Z,66.57
2022-11-05T08:25:06.982Z,79.20
2022-11-05T08:27:41.095Z,68.63
2022-11-05T08:30:13.885Z,81.63
2022-11-05T08:32:46.297Z,70.38
2022-11-05T08:35:20.330Z,75.70
2022-11-05T08:38:03.033Z,79.88
2022-11-05T08:40:37.197Z,86.50
2022-11-05T08:43:13.367Z,85.85
2022-11-05T08:45:46.277Z,76.72
2022-11-05T08:48:19.918Z,74.30
2022-11-05T08:50:52.482Z,73.60
2022-11-05T08:53:25.070Z,75.30
2022-11-05T08:56:00.727Z,67.10
2022-11-05T08:58:33.628Z,65.00
2022-11-05T09:01:06.438Z,66.70
2022-11-05T09:03:39.269Z,71.32
2022-11-05T09:06:11.764Z,67.57
2022-11-05T09:08:44.563Z,61.13
2022-11-05T09:11:18.434Z,52.38
2022-11-05T09:13:50.908Z,55.55
2022-11-05T09:16:26.126Z,54.95
2022-11-05T09:18:58.584Z,56.50
2022-11-05T09:21:31.451Z,60.17
2022-11-05T09:24:04.759Z,59.92
2022-11-05T09:26:37.663Z,58.80
2022-11-05T09:29:14.235Z,67.88
2022-11-05T09:31:47.138Z,67.45
2022-11-05T09:34:19.647Z,71.20
2022-11-05T09:36:52.117Z,56.15
2022-11-05T09:39:24.968Z,54.65
2022-11-05T09:42:07.347Z,58.70
2022-11-05T09:45:04.602Z,58.72
2022-11-05T09:47:43.551Z,62.42
2022-11-05T09:50:25.553Z,56.53
2022-11-05T09:52:58.818Z,58.40
2022-11-05T09:55:49.246Z,70.07
2022-11-05T09:59:07.178Z,54.72
2022-11-05T10:04:21.861Z,59.45
2022-11-05T10:07:00.839Z,66.75
2022-11-05T10:09:47.875Z,52.60
2022-11-05T10:12:48.142Z,64.93
2022-11-05T10:15:24.794Z,60.33
2022-11-05T10:18:04.524Z,64.47
2022-11-05T10:20:39.207Z,66.35
2022-11-05T10:23:18.679Z,72.78
2022-11-05T10:26:10.189Z,73.03
2022-11-05T10:28:42.551Z,84.05
2022-11-05T10:31:21.107Z,63.28
2022-11-05T10:34:02.704Z,65.85
2022-11-05T10:36:38.015Z,91.85
2022-11-05T10:39:15.043Z,94.47
2022-11-05T10:42:22.458Z,91.95
2022-11-05T10:45:38.582Z,82.75
2022-11-05T10:48:52.200Z,79.45
2022-11-05T10:51:25.093Z,86.82
2022-11-05T10:54:03.101Z,79.65
2022-11-05T10:56:41.291Z,80.68
2022-11-05T10:59:28.993Z,80.35
2022-11-05T11:02:18.260Z,66.88
2022-11-05T11:04:58.418Z,69.05
2022-11-05T11:07:31.202Z,60.15
2022-11-05T11:10:04.302Z,72.10
2022-11-05T11:12:44.218Z,58.17
2022-11-05T11:15:27.455Z,54.30
2022-11-05T11:18:00.290Z,60.90
2022-11-05T11:20:33.657Z,66.32
2022-11-05T11:23:13.977Z,71.05
2022-11-05T11:26:02.249Z,58.92
2022-11-05T11:28:47.181Z,59.17
2022-11-05T11:31:26.009Z,77.65
2022-11-05T11:34:04.686Z,58.20
2022-11-05T11:36:46.275Z,82.00
2022-11-05T11:39:25.165Z,67.15
2022-11-05T11:42:05.674Z,74.65
2022-11-05T11:44:44.976Z,56.78
2022-11-05T11:47:21.220Z,49.72
2022-11-05T11:50:01.160Z,56.50
2022-11-05T11:52:36.985Z,65.43
2022-11-05T11:55:12.383Z,87.82
2022-11-05T11:57:54.692Z,75.50
2022-11-05T12:00:27.278Z,97.32
2022-11-05T12:03:41.286Z,72.47
2022-11-05T12:06:41.384Z,77.60
2022-11-05T12:09:44.421Z,93.30
2022-11-05T12:12:23.011Z,104.90
2022-11-05T12:15:23.136Z,77.00
2022-11-05T12:18:07.715Z,77.45
2022-11-05T12:21:07.639Z,82.47
2022-11-05T12:24:21.025Z,92.13
2022-11-05T12:27:47.813Z,66.60
2022-11-05T12:30:22.107Z,55.70
2022-11-05T12:33:26.805Z,72.47
2022-11-05T12:36:28.657Z,103.65
2022-11-05T12:39:42.831Z,54.58
2022-11-05T12:42:42.852Z,57.70
2022-11-05T12:45:36.597Z,123.03
2022-11-05T12:48:43.151Z,141.13
2022-11-05T12:51:28.470Z,53.20
2022-11-05T12:54:40.924Z,70.50
2022-11-05T12:57:15.618Z,56.35
2022-11-05T13:00:02.472Z,109.65
2022-11-05T13:02:47.883Z,110.97
2022-11-05T13:06:06.115Z,52.70
2022-11-05T13:08:46.792Z,62.55
2022-11-05T13:11:40.881Z,104.50
2022-11-05T13:14:22.623Z,79.80
2022-11-05T13:17:01.306Z,98.30
2022-11-05T13:19:46.971Z,72.45
2022-11-05T13:22:40.323Z,73.70
2022-11-05T13:25:29.240Z,116.30
2022-11-05T13:28:28.771Z,82.90
2022-11-05T13:31:05.996Z,105.95
2022-11-05T13:33:43.128Z,85.57
2022-11-05T13:36:44.942Z,68.30
2022-11-05T13:39:57.689Z,69.60
2022-11-05T13:42:38.871Z,71.70
2022-11-05T13:45:29.807Z,70.70
2022-11-05T13:48:34.548Z,76.20
2022-11-05T13:51:40.288Z,70.55
2022-11-05T13:54:55.863Z,72.10
2022-11-05T13:57:31.164Z,68.75
2022-11-05T14:00:27.427Z,79.85
2022-11-05T14:03:20.002Z,61.70
2022-11-05T14:06:09.252Z,65.13
2022-11-05T14:08:46.054Z,59.15
2022-11-05T14:11:42.317Z,68.07
2022-11-05T14:14:26.650Z,72.80
2022-11-05T14:17:08.104Z,65.90
2022-11-05T14:20:06.601Z,59.78
2022-11-05T14:22:42.562Z,63.72
2022-11-05T14:25:18.297Z,69.32
2022-11-05T14:27:53.518Z,62.10
2022-11-05T14:30:46.962Z,101.72
2022-11-05T14:33:25.528Z,83.63
2022-11-05T14:36:20.623Z,80.30
2022-11-05T14:39:12.198Z,78.10
2022-11-05T14:42:11.094Z,85.07
2022-11-05T14:44:59.653Z,84.13
2022-11-05T14:47:38.042Z,88.43
2022-11-05T14:50:20.898Z,89.13
2022-11-05T14:52:57.757Z,101.55
2022-11-05T14:55:36.406Z,93.68
2022-11-05T14:58:30.762Z,106.05
2022-11-05T15:01:30.239Z,86.72
2022-11-05T15:04:17.497Z,68.85
2022-11-05T15:07:05.963Z,68.28
2022-11-05T15:09:50.619Z,79.95
2022-11-05T15:13:04.835Z,75.95
2022-11-05T15:15:44.814Z,73.70
2022-11-05T15:18:35.622Z,72.80
2022-11-05T15:21:13.619Z,69.05
2022-11-05T15:23:50.338Z,77.32
2022-11-05T15:26:59.226Z,61.58
2022-11-05T15:29:33.846Z,92.22
2022-11-05T15:32:12.277Z,90.05
2022-11-05T15:34:53.795Z,83.00
2022-11-05T15:37:27.995Z,84.30
2022-11-05T15:40:00.527Z,66.22
2022-11-05T15:42:32.885Z,85.35
2022-11-05T15:45:17.872Z,77.07
2022-11-05T15:47:50.185Z,66.70
2022-11-05T15:50:22.780Z,71.53
2022-11-05T15:53:04.832Z,73.50
2022-11-05T15:56:02.150Z,61.30
2022-11-05T15:58:41.330Z,66.88
2022-11-05T16:01:36.987Z,76.63
2022-11-05T16:04:16.361Z,61.40
2022-11-05T16:06:53.020Z,69.15
2022-11-05T16:09:31.099Z,68.68
2022-11-05T16:12:32.126Z,74.90
2022-11-05T16:15:29.386Z,89.20
2022-11-05T16:18:01.887Z,86.00
2022-11-05T16:20:38.504Z,72.90
2022-11-05T16:23:25.330Z,76.15
2022-11-05T16:25:57.776Z,80.93
2022-11-05T16:28:31.083Z,88.97
2022-11-05T16:31:06.348Z,72.55
2022-11-05T16:33:46.230Z,86.72
2022-11-05T16:36:18.990Z,84.68
2022-11-05T16:38:51.842Z,94.35
2022-11-05T16:41:26.143Z,94.80
2022-11-05T16:44:00.835Z,104.28
2022-11-05T16:46:34.188Z,109.40
2022-11-05T16:49:06.538Z,95.95
2022-11-05T16:51:39.366Z,101.60
2022-11-05T16:54:11.917Z,106.90
2022-11-05T16:56:45.307Z,146.57
2022-11-05T16:59:17.660Z,192.77
2022-11-05T17:01:55.485Z,421.55
2022-11-05T17:04:28.202Z,501.88
2022-11-05T17:07:00.544Z,506.23
2022-11-05T17:09:32.980Z,500.02
2022-11-05T17:12:05.596Z,484.42
2022-11-05T17:14:38.097Z,494.65
2022-11-05T17:17:11.320Z,464.70
2022-11-05T17:19:47.042Z,482.50
2022-11-05T17:22:19.304Z,474.67
2022-11-05T17:24:51.634Z,443.23
2022-11-05T17:27:23.938Z,446.57
2022-11-05T17:29:56.247Z,419.23
2022-11-05T17:32:28.660Z,405.03
2022-11-05T17:35:01.030Z,415.03
2022-11-05T17:37:33.857Z,462.20
2022-11-05T17:40:08.756Z,432.47
